Weather at Lieutenant Cesar Base Air Base Heliport

Public forecast

Using degrees Celsius for public forecast. Weather courtesy of forecast.io.

Closest aviation weather report (METAR) to Lieutenant Cesar Base Air Base Heliport

Closest report is Diosdado Macapagal International Airport, 12.9 nm (23.8 km) NNE. Retrieved 2020/09/27 17:00 UTC (5 minutes ago):

RPLC 271700Z 25004KT 7000 SCT020 BKN300 27/23 Q1011 NOSIG RMK A2985

Closest aviation forecast (TAF) to Lieutenant Cesar Base Air Base Heliport

Closest forecast is Diosdado Macapagal International Airport, 12.9 nm (23.8 km) NNE. Retrieved 2020/09/27 12:00 UTC (5 hours ago):

TAF RPLC 271100Z 2712/2818 18006KT 9999 FEW020 BKN300 TX34/2806Z TN24/2722Z TEMPO 2712/2718 29006KT SCT020 BKN100